Observation data for Levelland on 10/14/2019      Previous  Date       Current Mesonet Observations  Soil Data  Daily Summary Page  Observations in Plain Language
KLD1 140500Z 24006KT 12/01 A2999 RMK A01 T01180013  RH  049%=      5-min Rain = 0
KLD1 140505Z 23006KT 12/01 A2999 RMK A01 T01160014  RH  050%=      5-min Rain = 0
KLD1 140510Z 23006KT 12/01 A2999 RMK A01 T01170014  RH  050%=      5-min Rain = 0
KLD1 140515Z 24006KT 12/01 A2999 RMK A01 T01180014  RH  049%=      5-min Rain = 0
KLD1 140520Z 24007KT 12/01 A2999 RMK A01 T01200014  RH  049%=      5-min Rain = 0
KLD1 140525Z 23007KT 12/01 A2999 RMK A01 T01190014  RH  050%=      5-min Rain = 0
KLD1 140530Z 23006KT 12/02 A2999 RMK A01 T01190015  RH  050%=      5-min Rain = 0
KLD1 140535Z 23005KT 12/02 A2999 RMK A01 T01180015  RH  050%=      5-min Rain = 0
KLD1 140540Z 24006KT 12/02 A2999 RMK A01 T01150016  RH  051%=      5-min Rain = 0
KLD1 140545Z 24006KT 11/02 A2999 RMK A01 T01140017  RH  052%=      5-min Rain = 0
KLD1 140550Z 24007KT 12/02 A2999 RMK A01 T01170017  RH  051%=      5-min Rain = 0
KLD1 140555Z 24007KT 12/02 A2999 RMK A01 T01210017  RH  050%=      5-min Rain = 0
KLD1 140600Z 24006KT 12/02 A2999 RMK A01 T01170017  RH  051%=      5-min Rain = 0
KLD1 140605Z 24007KT 11/02 A2999 RMK A01 T01130018  RH  053%=      5-min Rain = 0
KLD1 140610Z 25008KT 12/02 A2999 RMK A01 T01180017  RH  051%=      5-min Rain = 0
KLD1 140615Z 24008KT 12/02 A2999 RMK A01 T01150018  RH  052%=      5-min Rain = 0
KLD1 140620Z 25008KT 12/02 A2999 RMK A01 T01170018  RH  051%=      5-min Rain = 0
KLD1 140625Z 25007KT 12/02 A2999 RMK A01 T01160019  RH  052%=      5-min Rain = 0
KLD1 140630Z 20007G12KT 11/02 A2999 RMK A01 T01090020  RH  055%=      5-min Rain = 0
KLD1 140635Z 18008G13KT 13/01 A30 RMK A01 T01270013  RH  047%=      5-min Rain = 0
KLD1 140640Z 20007KT 14/01 A30 RMK A01 T01420010  RH  041%=      5-min Rain = 0
KLD1 140645Z 21004KT 14/01 A2999 RMK A01 T01390012  RH  042%=      5-min Rain = 0
KLD1 140650Z 15002KT 14/01 A2999 RMK A01 T01350013  RH  044%=      5-min Rain = 0
KLD1 140655Z 18005KT 13/01 A2999 RMK A01 T01320012  RH  045%=      5-min Rain = 0
KLD1 140700Z 22007KT 13/01 A2999 RMK A01 T01320012  RH  045%=      5-min Rain = 0
KLD1 140705Z 22007KT 13/01 A30 RMK A01 T01330012  RH  044%=      5-min Rain = 0
KLD1 140710Z 23007KT 13/01 A2999 RMK A01 T01340011  RH  044%=      5-min Rain = 0
KLD1 140715Z 23007KT 13/01 A2999 RMK A01 T01330012  RH  044%=      5-min Rain = 0
KLD1 140720Z 23007KT 13/01 A30 RMK A01 T01300013  RH  045%=      5-min Rain = 0
KLD1 140725Z 23007KT 13/01 A2999 RMK A01 T01300012  RH  045%=      5-min Rain = 0
KLD1 140730Z 23008KT 13/01 A2999 RMK A01 T01340010  RH  043%=      5-min Rain = 0
KLD1 140735Z 23008KT 14/01 A2999 RMK A01 T01400009  RH  041%=      5-min Rain = 0
KLD1 140740Z 23007KT 14/01 A2999 RMK A01 T01400009  RH  041%=      5-min Rain = 0
KLD1 140745Z 23007KT 14/01 A2999 RMK A01 T01380010  RH  042%=      5-min Rain = 0
KLD1 140750Z 23007KT 14/01 A2999 RMK A01 T01380010  RH  042%=      5-min Rain = 0
KLD1 140755Z 23007KT 14/01 A2999 RMK A01 T01380010  RH  042%=      5-min Rain = 0
KLD1 140800Z 22007KT 14/01 A2999 RMK A01 T01370011  RH  043%=      5-min Rain = 0
KLD1 140805Z 23008KT 14/01 A2999 RMK A01 T01390011  RH  042%=      5-min Rain = 0
KLD1 140810Z 23007KT 14/01 A2999 RMK A01 T01400011  RH  042%=      5-min Rain = 0
KLD1 140815Z 23006KT 14/01 A2998 RMK A01 T01390013  RH  043%=      5-min Rain = 0
KLD1 140820Z 23006KT 14/01 A2998 RMK A01 T01390013  RH  043%=      5-min Rain = 0
KLD1 140825Z 23008KT 14/01 A2998 RMK A01 T01420014  RH  042%=      5-min Rain = 0
KLD1 140830Z 23008KT 15/02 A2998 RMK A01 T01470015  RH  041%=      5-min Rain = 0
KLD1 140835Z 24008KT 15/02 A2998 RMK A01 T01500017  RH  041%=      5-min Rain = 0
KLD1 140840Z 24009KT 15/02 A2998 RMK A01 T01510019  RH  041%=      5-min Rain = 0
KLD1 140845Z 24008KT 15/02 A2998 RMK A01 T01500021  RH  042%=      5-min Rain = 0
KLD1 140850Z 24009KT 14/02 A2998 RMK A01 T01430022  RH  045%=      5-min Rain = 0
KLD1 140855Z 24010KT 15/02 A2998 RMK A01 T01450024  RH  045%=      5-min Rain = 0
KLD1 140900Z 24009KT 15/03 A2998 RMK A01 T01480025  RH  044%=      5-min Rain = 0
KLD1 140905Z 24008KT 15/03 A2998 RMK A01 T01460026  RH  045%=      5-min Rain = 0
KLD1 140910Z 25008KT 14/03 A2998 RMK A01 T01430028  RH  047%=      5-min Rain = 0
KLD1 140915Z 25007KT 14/03 A2998 RMK A01 T01400029  RH  048%=      5-min Rain = 0
KLD1 140920Z 25006KT 14/03 A2998 RMK A01 T01370031  RH  049%=      5-min Rain = 0
KLD1 140925Z 25007KT 14/03 A2998 RMK A01 T01350032  RH  051%=      5-min Rain = 0
KLD1 140930Z 25006KT 14/03 A2997 RMK A01 T01350034  RH  051%=      5-min Rain = 0
KLD1 140935Z 24006KT 13/04 A2997 RMK A01 T01340035  RH  052%=      5-min Rain = 0
KLD1 140940Z 25007KT 13/04 A2997 RMK A01 T01330036  RH  053%=      5-min Rain = 0
KLD1 140945Z 24007KT 13/04 A2997 RMK A01 T01340038  RH  053%=      5-min Rain = 0
KLD1 140950Z 24006KT 14/04 A2997 RMK A01 T01380039  RH  052%=      5-min Rain = 0
KLD1 140955Z 24006KT 14/04 A2997 RMK A01 T01420040  RH  051%=      5-min Rain = 0
KLD1 141000Z 23006KT 14/04 A2997 RMK A01 T01440040  RH  051%=      5-min Rain = 0
KLD1 141005Z 23006KT 14/04 A2998 RMK A01 T01440040  RH  051%=      5-min Rain = 0
KLD1 141010Z 24006KT 14/04 A2998 RMK A01 T01430041  RH  051%=      5-min Rain = 0
KLD1 141015Z 25006KT 14/04 A2998 RMK A01 T01410042  RH  052%=      5-min Rain = 0
KLD1 141020Z 25006KT 14/04 A2998 RMK A01 T01360043  RH  054%=      5-min Rain = 0
KLD1 141025Z 24006KT 13/04 A2997 RMK A01 T01300043  RH  056%=      5-min Rain = 0
KLD1 141030Z 23006KT 13/05 A2997 RMK A01 T01320045  RH  057%=      5-min Rain = 0
KLD1 141035Z 24007KT 14/05 A2998 RMK A01 T01390050  RH  056%=      5-min Rain = 0
KLD1 141040Z 24007KT 14/05 A2997 RMK A01 T01410051  RH  056%=      5-min Rain = 0
KLD1 141045Z 23007KT 14/05 A2998 RMK A01 T01420052  RH  056%=      5-min Rain = 0
KLD1 141050Z 23007KT 14/05 A2997 RMK A01 T01420052  RH  056%=      5-min Rain = 0
KLD1 141055Z 23006KT 14/05 A2998 RMK A01 T01410052  RH  057%=      5-min Rain = 0
KLD1 141100Z 23006KT 14/05 A2998 RMK A01 T01400053  RH  057%=      5-min Rain = 0
KLD1 141105Z 23006KT 14/05 A2998 RMK A01 T01390053  RH  057%=      5-min Rain = 0
KLD1 141110Z 24007KT 14/05 A2998 RMK A01 T01400054  RH  058%=      5-min Rain = 0
KLD1 141115Z 24008KT 14/06 A2999 RMK A01 T01440055  RH  057%=      5-min Rain = 0
KLD1 141120Z 24007KT 15/06 A2999 RMK A01 T01460056  RH  056%=      5-min Rain = 0
KLD1 141125Z 24007KT 15/06 A2999 RMK A01 T01450056  RH  056%=      5-min Rain = 0
KLD1 141130Z 24007KT 14/06 A2999 RMK A01 T01430055  RH  057%=      5-min Rain = 0
KLD1 141135Z 25008KT 14/05 A2999 RMK A01 T01440054  RH  056%=      5-min Rain = 0
KLD1 141140Z 24007KT 14/06 A2999 RMK A01 T01400055  RH  057%=      5-min Rain = 0
KLD1 141145Z 24007KT 14/06 A2999 RMK A01 T01390055  RH  058%=      5-min Rain = 0
KLD1 141150Z 24006KT 14/06 A2999 RMK A01 T01390055  RH  058%=      5-min Rain = 0
KLD1 141155Z 24006KT 14/06 A2999 RMK A01 T01370055  RH  059%=      5-min Rain = 0
KLD1 141200Z 24005KT 14/06 A2999 RMK A01 T01350055  RH  059%=      5-min Rain = 0
KLD1 141205Z 25004KT 13/06 A2999 RMK A01 T01320055  RH  061%=      5-min Rain = 0
KLD1 141210Z 31006KT 12/05 A30 RMK A01 T01220054  RH  065%=      5-min Rain = 0
KLD1 141215Z 29006KT 12/06 A30 RMK A01 T01190058  RH  067%=      5-min Rain = 0
KLD1 141220Z 27006KT 12/06 A30 RMK A01 T01220060  RH  067%=      5-min Rain = 0
KLD1 141225Z 29007KT 12/06 A30 RMK A01 T01240062  RH  067%=      5-min Rain = 0
KLD1 141230Z 29007KT 12/06 A30 RMK A01 T01230063  RH  068%=      5-min Rain = 0
KLD1 141235Z 27006KT 12/07 A30 RMK A01 T01240065  RH  069%=      5-min Rain = 0
KLD1 141240Z 28006KT 13/07 A30 RMK A01 T01260068  RH  069%=      5-min Rain = 0
KLD1 141245Z 30006KT 12/07 A3001 RMK A01 T01230067  RH  070%=      5-min Rain = 0
KLD1 141250Z 30006KT 12/07 A3001 RMK A01 T01170065  RH  073%=      5-min Rain = 0
KLD1 141255Z 28006KT 12/07 A3001 RMK A01 T01150065  RH  073%=      5-min Rain = 0
KLD1 141300Z 28006KT 12/07 A3001 RMK A01 T01180070  RH  074%=      5-min Rain = 0
KLD1 141305Z 28006KT 12/07 A3001 RMK A01 T01220072  RH  073%=      5-min Rain = 0
KLD1 141310Z 28006KT 12/07 A3001 RMK A01 T01210072  RH  074%=      5-min Rain = 0
KLD1 141315Z 28006KT 12/07 A3001 RMK A01 T01190071  RH  074%=      5-min Rain = 0
KLD1 141320Z 27006KT 12/07 A3001 RMK A01 T01180072  RH  075%=      5-min Rain = 0
KLD1 141325Z 27006KT 12/07 A3001 RMK A01 T01210074  RH  075%=      5-min Rain = 0
KLD1 141330Z 29005KT 13/08 A3001 RMK A01 T01250076  RH  074%=      5-min Rain = 0
KLD1 141335Z 29005KT 13/08 A3001 RMK A01 T01310078  RH  072%=      5-min Rain = 0
KLD1 141340Z 29005KT 14/08 A3001 RMK A01 T01360078  RH  070%=      5-min Rain = 0
KLD1 141345Z 30005KT 14/08 A3001 RMK A01 T01380078  RH  069%=      5-min Rain = 0
KLD1 141350Z 28004KT 14/08 A3001 RMK A01 T01380078  RH  069%=      5-min Rain = 0
KLD1 141355Z 27005KT 14/08 A3001 RMK A01 T01390079  RH  069%=      5-min Rain = 0
KLD1 141400Z 28005KT 14/08 A3002 RMK A01 T01440080  RH  067%=      5-min Rain = 0
KLD1 141405Z 28006KT 14/08 A3002 RMK A01 T01440079  RH  066%=      5-min Rain = 0
KLD1 141410Z 28004KT 15/08 A3002 RMK A01 T01450080  RH  067%=      5-min Rain = 0
KLD1 141415Z 28004KT 15/08 A3002 RMK A01 T01470081  RH  066%=      5-min Rain = 0
KLD1 141420Z 29005KT 15/08 A3002 RMK A01 T01470081  RH  066%=      5-min Rain = 0
KLD1 141425Z 28004KT 15/08 A3002 RMK A01 T01490081  RH  066%=      5-min Rain = 0
KLD1 141430Z 28003KT 15/08 A3002 RMK A01 T01520082  RH  065%=      5-min Rain = 0
KLD1 141435Z 28003KT 16/08 A3002 RMK A01 T01550082  RH  063%=      5-min Rain = 0
KLD1 141440Z 27003KT 16/08 A3003 RMK A01 T01560081  RH  063%=      5-min Rain = 0
KLD1 141445Z 25002KT 16/08 A3003 RMK A01 T01550082  RH  063%=      5-min Rain = 0
KLD1 141450Z 25003KT 16/08 A3003 RMK A01 T01550082  RH  063%=      5-min Rain = 0
KLD1 141455Z 26003KT 16/08 A3003 RMK A01 T01560083  RH  063%=      5-min Rain = 0
KLD1 141500Z 26003KT 16/09 A3003 RMK A01 T01640085  RH  061%=      5-min Rain = 0
KLD1 141505Z 28005KT 17/08 A3003 RMK A01 T01720083  RH  057%=      5-min Rain = 0
KLD1 141510Z 28005KT 18/08 A3003 RMK A01 T01750081  RH  056%=      5-min Rain = 0
KLD1 141515Z 29006KT 18/08 A3003 RMK A01 T01830081  RH  053%=      5-min Rain = 0
KLD1 141520Z 29006KT 19/08 A3003 RMK A01 T01910082  RH  051%=      5-min Rain = 0
KLD1 141525Z 29005KT 20/08 A3003 RMK A01 T01970081  RH  048%=      5-min Rain = 0
KLD1 141530Z 29005KT 20/08 A3003 RMK A01 T02040083  RH  047%=      5-min Rain = 0
KLD1 141535Z 30005KT 21/07 A3003 RMK A01 T02130074  RH  042%=      5-min Rain = 0
KLD1 141540Z 31004KT 22/07 A3003 RMK A01 T02200069  RH  039%=      5-min Rain = 0
KLD1 141545Z 32004KT 22/07 A3003 RMK A01 T02220066  RH  037%=      5-min Rain = 0
KLD1 141550Z 30004KT 23/06 A3003 RMK A01 T02270060  RH  035%=      5-min Rain = 0
KLD1 141555Z 31004KT 23/05 A3003 RMK A01 T02250053  RH  033%=      5-min Rain = 0
KLD1 141600Z 33003KT 23/05 A3003 RMK A01 T02260049  RH  032%=      5-min Rain = 0
KLD1 141605Z 32003KT 23/05 A3003 RMK A01 T02290051  RH  032%=      5-min Rain = 0
KLD1 141610Z 34003KT 23/05 A3003 RMK A01 T02300046  RH  031%=      5-min Rain = 0
KLD1 141615Z 33003KT 24/05 A3002 RMK A01 T02350050  RH  031%=      5-min Rain = 0
KLD1 141620Z 35003KT 24/05 A3002 RMK A01 T02370048  RH  030%=      5-min Rain = 0
KLD1 141625Z 34003KT 24/05 A3002 RMK A01 T02380045  RH  029%=      5-min Rain = 0
KLD1 141630Z 02002KT 24/05 A3002 RMK A01 T02390045  RH  029%=      5-min Rain = 0
KLD1 141635Z 02001KT 24/05 A3002 RMK A01 T02410047  RH  029%=      5-min Rain = 0
KLD1 141640Z 11002KT 24/05 A3002 RMK A01 T02420047  RH  029%=      5-min Rain = 0
KLD1 141645Z 14002KT 25/04 A3002 RMK A01 T02470042  RH  027%=      5-min Rain = 0
KLD1 141650Z 11001KT 25/04 A3002 RMK A01 T02530044  RH  026%=      5-min Rain = 0
KLD1 141655Z 08001KT 25/04 A3002 RMK A01 T02490039  RH  026%=      5-min Rain = 0
KLD1 141700Z 17004G10KT 25/05 A3002 RMK A01 T02480053  RH  029%=      5-min Rain = 0
KLD1 141705Z 16007KT 25/08 A3002 RMK A01 T02470075  RH  034%=      5-min Rain = 0
KLD1 141710Z 16007KT 24/08 A3002 RMK A01 T02440075  RH  035%=      5-min Rain = 0
KLD1 141715Z 16007KT 24/07 A3002 RMK A01 T02410072  RH  035%=      5-min Rain = 0
KLD1 141720Z 15006KT 24/07 A3002 RMK A01 T02420071  RH  034%=      5-min Rain = 0
KLD1 141725Z 15007KT 24/07 A3002 RMK A01 T02440066  RH  033%=      5-min Rain = 0
KLD1 141730Z 16007KT 25/07 A3001 RMK A01 T02460065  RH  032%=      5-min Rain = 0
KLD1 141735Z 16009KT 24/09 A3001 RMK A01 T02440086  RH  038%=      5-min Rain = 0
KLD1 141740Z 16010KT 25/09 A3001 RMK A01 T02450089  RH  038%=      5-min Rain = 0
KLD1 141745Z 17009KT 24/08 A3001 RMK A01 T02390083  RH  038%=      5-min Rain = 0
KLD1 141750Z 17008KT 24/08 A3001 RMK A01 T02400082  RH  037%=      5-min Rain = 0
KLD1 141755Z 18008KT 24/08 A3001 RMK A01 T02430079  RH  036%=      5-min Rain = 0
KLD1 141800Z 18007KT 24/07 A30 RMK A01 T02400072  RH  035%=      5-min Rain = 0
KLD1 141805Z 18006KT 24/07 A30 RMK A01 T02420067  RH  033%=      5-min Rain = 0
KLD1 141810Z 18008KT 24/07 A30 RMK A01 T02440068  RH  033%=      5-min Rain = 0
KLD1 141815Z 18008KT 25/07 A30 RMK A01 T02500068  RH  032%=      5-min Rain = 0
KLD1 141820Z 19007G12KT 26/07 A2999 RMK A01 T02560067  RH  031%=      5-min Rain = 0
KLD1 141825Z 18009KT 26/06 A2999 RMK A01 T02580057  RH  028%=      5-min Rain = 0
KLD1 141830Z 18008KT 26/06 A2999 RMK A01 T02560058  RH  029%=      5-min Rain = 0
KLD1 141835Z 19007KT 26/06 A2998 RMK A01 T02600056  RH  028%=      5-min Rain = 0
KLD1 141840Z 19008KT 26/05 A2998 RMK A01 T02580051  RH  027%=      5-min Rain = 0
KLD1 141845Z 17007KT 26/06 A2998 RMK A01 T02610058  RH  028%=      5-min Rain = 0
KLD1 141850Z 20007KT 27/06 A2998 RMK A01 T02700064  RH  027%=      5-min Rain = 0
KLD1 141855Z 20010KT 27/07 A2997 RMK A01 T02710068  RH  028%=      5-min Rain = 0
KLD1 141900Z 21009KT 27/07 A2997 RMK A01 T02710070  RH  029%=      5-min Rain = 0
KLD1 141905Z 18010KT 27/07 A2997 RMK A01 T02720074  RH  029%=      5-min Rain = 0
KLD1 141910Z 19009G14KT 27/08 A2997 RMK A01 T02730083  RH  031%=      5-min Rain = 0
KLD1 141915Z 20010G16KT 27/09 A2996 RMK A01 T02730088  RH  032%=      5-min Rain = 0
KLD1 141920Z 19009KT 27/09 A2996 RMK A01 T02710089  RH  033%=      5-min Rain = 0
KLD1 141925Z 19011KT 28/09 A2996 RMK A01 T02750086  RH  031%=      5-min Rain = 0
KLD1 141930Z 20010KT 28/08 A2996 RMK A01 T02760084  RH  031%=      5-min Rain = 0
KLD1 141935Z 19009G15KT 28/09 A2996 RMK A01 T02770085  RH  031%=      5-min Rain = 0
KLD1 141940Z 19010G19KT 27/08 A2995 RMK A01 T02740082  RH  031%=      5-min Rain = 0
KLD1 141945Z 20011G16KT 27/08 A2995 RMK A01 T02730080  RH  030%=      5-min Rain = 0
KLD1 141950Z 20009KT 28/08 A2994 RMK A01 T02770083  RH  030%=      5-min Rain = 0
KLD1 141955Z 20009KT 28/08 A2994 RMK A01 T02790084  RH  030%=      5-min Rain = 0
KLD1 142000Z 18010G15KT 28/08 A2994 RMK A01 T02780082  RH  030%=      5-min Rain = 0
KLD1 142005Z 21012G19KT 28/08 A2993 RMK A01 T02790082  RH  030%=      5-min Rain = 0
KLD1 142010Z 21010G15KT 28/08 A2993 RMK A01 T02790081  RH  030%=      5-min Rain = 0
KLD1 142015Z 20009KT 28/08 A2993 RMK A01 T02790080  RH  029%=      5-min Rain = 0
KLD1 142020Z 20009KT 28/08 A2993 RMK A01 T02830083  RH  029%=      5-min Rain = 0
KLD1 142025Z 22009G14KT 28/08 A2992 RMK A01 T02810079  RH  029%=      5-min Rain = 0
KLD1 142030Z 20008G13KT 28/08 A2992 RMK A01 T02800078  RH  029%=      5-min Rain = 0
KLD1 142035Z 21010KT 28/08 A2992 RMK A01 T02840082  RH  029%=      5-min Rain = 0
KLD1 142040Z 19010G15KT 28/08 A2992 RMK A01 T02840081  RH  029%=      5-min Rain = 0
KLD1 142045Z 20009KT 28/08 A2992 RMK A01 T02840077  RH  028%=      5-min Rain = 0
KLD1 142050Z 17009G14KT 28/08 A2992 RMK A01 T02820080  RH  029%=      5-min Rain = 0
KLD1 142055Z 20011KT 28/08 A2992 RMK A01 T02830079  RH  029%=      5-min Rain = 0
KLD1 142100Z 20007KT 28/08 A2992 RMK A01 T02840080  RH  028%=      5-min Rain = 0
KLD1 142105Z 21010G16KT 28/08 A2991 RMK A01 T02830081  RH  029%=      5-min Rain = 0
KLD1 142110Z 19011G17KT 28/08 A2992 RMK A01 T02840080  RH  029%=      5-min Rain = 0
KLD1 142115Z 19008G13KT 28/08 A2992 RMK A01 T02840078  RH  028%=      5-min Rain = 0
KLD1 142120Z 18012KT 28/08 A2991 RMK A01 T02830079  RH  028%=      5-min Rain = 0
KLD1 142125Z 20009KT 28/08 A2991 RMK A01 T02840083  RH  029%=      5-min Rain = 0
KLD1 142130Z 20010KT 29/08 A2992 RMK A01 T02850082  RH  029%=      5-min Rain = 0
KLD1 142135Z 18008G14KT 28/08 A2991 RMK A01 T02840080  RH  028%=      5-min Rain = 0
KLD1 142140Z 19011KT 28/08 A2991 RMK A01 T02830079  RH  028%=      5-min Rain = 0
KLD1 142145Z 19012KT 29/08 A2991 RMK A01 T02850080  RH  028%=      5-min Rain = 0
KLD1 142150Z 20008KT 28/08 A2991 RMK A01 T02840081  RH  029%=      5-min Rain = 0
KLD1 142155Z 19009G14KT 28/08 A2991 RMK A01 T02820079  RH  029%=      5-min Rain = 0
KLD1 142200Z 19012G18KT 28/08 A2991 RMK A01 T02830081  RH  029%=      5-min Rain = 0
KLD1 142205Z 20009G15KT 28/08 A2991 RMK A01 T02820081  RH  029%=      5-min Rain = 0
KLD1 142210Z 18007G14KT 28/08 A2991 RMK A01 T02810082  RH  029%=      5-min Rain = 0
KLD1 142215Z 18011KT 28/08 A2991 RMK A01 T02800081  RH  029%=      5-min Rain = 0
KLD1 142220Z 21011KT 28/09 A2991 RMK A01 T02830085  RH  030%=      5-min Rain = 0
KLD1 142225Z 20010KT 28/09 A2991 RMK A01 T02810085  RH  030%=      5-min Rain = 0
KLD1 142230Z 19010KT 28/09 A2991 RMK A01 T02820086  RH  030%=      5-min Rain = 0
KLD1 142235Z 19011KT 28/09 A2991 RMK A01 T02790085  RH  030%=      5-min Rain = 0
KLD1 142240Z 19010KT 28/08 A2991 RMK A01 T02790084  RH  030%=      5-min Rain = 0
KLD1 142245Z 20009KT 28/09 A2991 RMK A01 T02780085  RH  030%=      5-min Rain = 0
KLD1 142250Z 19011KT 28/09 A2991 RMK A01 T02780086  RH  031%=      5-min Rain = 0
KLD1 142255Z 19011G16KT 28/09 A2991 RMK A01 T02760087  RH  031%=      5-min Rain = 0
KLD1 142300Z 19010KT 28/09 A2991 RMK A01 T02760088  RH  032%=      5-min Rain = 0
KLD1 142305Z 19010G16KT 28/09 A2991 RMK A01 T02760090  RH  032%=      5-min Rain = 0
KLD1 142310Z 19011KT 27/09 A2991 RMK A01 T02740089  RH  032%=      5-min Rain = 0
KLD1 142315Z 19010G15KT 27/09 A2991 RMK A01 T02730089  RH  032%=      5-min Rain = 0
KLD1 142320Z 20012KT 27/09 A2991 RMK A01 T02720089  RH  032%=      5-min Rain = 0
KLD1 142325Z 20011KT 27/09 A2991 RMK A01 T02700089  RH  033%=      5-min Rain = 0
KLD1 142330Z 20010KT 27/09 A2991 RMK A01 T02690090  RH  033%=      5-min Rain = 0
KLD1 142335Z 20010KT 27/09 A2991 RMK A01 T02670091  RH  034%=      5-min Rain = 0
KLD1 142340Z 20010KT 27/09 A2991 RMK A01 T02650090  RH  034%=      5-min Rain = 0
KLD1 142345Z 20010KT 26/09 A2991 RMK A01 T02620092  RH  035%=      5-min Rain = 0
KLD1 142350Z 20009KT 26/10 A2991 RMK A01 T02600096  RH  037%=      5-min Rain = 0
KLD1 142355Z 20009KT 26/10 A2991 RMK A01 T02580099  RH  038%=      5-min Rain = 0
KLD1 150000Z 20009KT 26/10 A2991 RMK A01 T02550100  RH  039%=      5-min Rain = 0
KLD1 150005Z 20007KT 25/10 A2991 RMK A01 T02520101  RH  040%=      5-min Rain = 0
KLD1 150010Z 20008KT 25/10 A2991 RMK A01 T02480101  RH  041%=      5-min Rain = 0
KLD1 150015Z 20007KT 24/10 A2991 RMK A01 T02440102  RH  042%=      5-min Rain = 0
KLD1 150020Z 20007KT 24/10 A2992 RMK A01 T02390103  RH  044%=      5-min Rain = 0
KLD1 150025Z 21008KT 24/11 A2992 RMK A01 T02380105  RH  045%=      5-min Rain = 0
KLD1 150030Z 21008KT 24/11 A2992 RMK A01 T02370107  RH  046%=      5-min Rain = 0
KLD1 150035Z 20008KT 24/11 A2992 RMK A01 T02350108  RH  046%=      5-min Rain = 0
KLD1 150040Z 20008KT 23/11 A2992 RMK A01 T02320109  RH  047%=      5-min Rain = 0
KLD1 150045Z 20008KT 23/11 A2992 RMK A01 T02300110  RH  048%=      5-min Rain = 0
KLD1 150050Z 20009KT 23/11 A2993 RMK A01 T02270111  RH  050%=      5-min Rain = 0
KLD1 150055Z 20009KT 23/11 A2993 RMK A01 T02250111  RH  050%=      5-min Rain = 0
KLD1 150100Z 20009KT 22/11 A2993 RMK A01 T02240110  RH  050%=      5-min Rain = 0
KLD1 150105Z 20009KT 22/11 A2993 RMK A01 T02230109  RH  050%=      5-min Rain = 0
KLD1 150110Z 20008KT 22/11 A2993 RMK A01 T02220106  RH  050%=      5-min Rain = 0
KLD1 150115Z 20009KT 22/10 A2993 RMK A01 T02200104  RH  049%=      5-min Rain = 0
KLD1 150120Z 21009KT 22/10 A2993 RMK A01 T02190101  RH  049%=      5-min Rain = 0
KLD1 150125Z 21008KT 22/10 A2994 RMK A01 T02180099  RH  048%=      5-min Rain = 0
KLD1 150130Z 21008KT 22/10 A2994 RMK A01 T02160097  RH  048%=      5-min Rain = 0
KLD1 150135Z 21008KT 21/10 A2994 RMK A01 T02130096  RH  049%=      5-min Rain = 0
KLD1 150140Z 21007KT 21/10 A2994 RMK A01 T02080096  RH  050%=      5-min Rain = 0
KLD1 150145Z 22007KT 20/10 A2994 RMK A01 T02030095  RH  051%=      5-min Rain = 0
KLD1 150150Z 21006KT 20/09 A2994 RMK A01 T01970094  RH  053%=      5-min Rain = 0
KLD1 150155Z 21006KT 19/09 A2995 RMK A01 T01910093  RH  055%=      5-min Rain = 0
KLD1 150200Z 21006KT 19/09 A2994 RMK A01 T01890092  RH  055%=      5-min Rain = 0
KLD1 150205Z 22007KT 19/09 A2995 RMK A01 T01920091  RH  054%=      5-min Rain = 0
KLD1 150210Z 21007KT 19/09 A2995 RMK A01 T01910090  RH  053%=      5-min Rain = 0
KLD1 150215Z 20006KT 19/09 A2995 RMK A01 T01890089  RH  054%=      5-min Rain = 0
KLD1 150220Z 20006KT 19/09 A2995 RMK A01 T01870089  RH  055%=      5-min Rain = 0
KLD1 150225Z 20006KT 19/09 A2995 RMK A01 T01860089  RH  055%=      5-min Rain = 0
KLD1 150230Z 21006KT 18/09 A2995 RMK A01 T01820088  RH  056%=      5-min Rain = 0
KLD1 150235Z 21007KT 18/09 A2995 RMK A01 T01790088  RH  057%=      5-min Rain = 0
KLD1 150240Z 21007KT 18/09 A2995 RMK A01 T01780088  RH  057%=      5-min Rain = 0
KLD1 150245Z 21007KT 18/09 A2995 RMK A01 T01800089  RH  057%=      5-min Rain = 0
KLD1 150250Z 21007KT 18/09 A2996 RMK A01 T01820089  RH  056%=      5-min Rain = 0
KLD1 150255Z 22007KT 18/09 A2996 RMK A01 T01820089  RH  056%=      5-min Rain = 0
KLD1 150300Z 22006KT 18/09 A2996 RMK A01 T01800088  RH  056%=      5-min Rain = 0
KLD1 150305Z 22007KT 18/09 A2996 RMK A01 T01770087  RH  057%=      5-min Rain = 0
KLD1 150310Z 22007KT 17/09 A2996 RMK A01 T01740088  RH  058%=      5-min Rain = 0
KLD1 150315Z 22007KT 17/09 A2996 RMK A01 T01700087  RH  060%=      5-min Rain = 0
KLD1 150320Z 23007KT 17/09 A2997 RMK A01 T01670087  RH  061%=      5-min Rain = 0
KLD1 150325Z 24006KT 17/09 A2997 RMK A01 T01650087  RH  061%=      5-min Rain = 0
KLD1 150330Z 23008KT 17/09 A2997 RMK A01 T01650086  RH  062%=      5-min Rain = 0
KLD1 150335Z 22008KT 17/09 A2997 RMK A01 T01670086  RH  060%=      5-min Rain = 0
KLD1 150340Z 23007KT 17/09 A2997 RMK A01 T01660085  RH  060%=      5-min Rain = 0
KLD1 150345Z 23006KT 16/08 A2997 RMK A01 T01630084  RH  061%=      5-min Rain = 0
KLD1 150350Z 23007KT 16/08 A2997 RMK A01 T01580084  RH  063%=      5-min Rain = 0
KLD1 150355Z 23007KT 16/08 A2997 RMK A01 T01560083  RH  064%=      5-min Rain = 0
KLD1 150400Z 23007KT 15/08 A2997 RMK A01 T01540083  RH  064%=      5-min Rain = 0
KLD1 150405Z 23008KT 15/08 A2997 RMK A01 T01540083  RH  064%=      5-min Rain = 0
KLD1 150410Z 23008KT 16/08 A2997 RMK A01 T01560082  RH  063%=      5-min Rain = 0
KLD1 150415Z 23007KT 16/08 A2997 RMK A01 T01570082  RH  063%=      5-min Rain = 0
KLD1 150420Z 23007KT 16/08 A2997 RMK A01 T01570081  RH  063%=      5-min Rain = 0
KLD1 150425Z 22006KT 15/08 A2997 RMK A01 T01540081  RH  063%=      5-min Rain = 0
KLD1 150430Z 22006KT 15/08 A2997 RMK A01 T01490081  RH  065%=      5-min Rain = 0
KLD1 150435Z 22007KT 15/08 A2997 RMK A01 T01470080  RH  066%=      5-min Rain = 0
KLD1 150440Z 22006KT 15/08 A2997 RMK A01 T01470080  RH  066%=      5-min Rain = 0
KLD1 150445Z 22006KT 15/08 A2997 RMK A01 T01470080  RH  066%=      5-min Rain = 0
KLD1 150450Z 22006KT 15/08 A2997 RMK A01 T01470081  RH  066%=      5-min Rain = 0
KLD1 150455Z 22006KT 15/08 A2997 RMK A01 T01470081  RH  066%=      5-min Rain = 0

Page generated in 0.0092 seconds.